Observation data for Levelland on 02/16/2017      Previous  Date  Next       Current Mesonet Observations  Soil Data  Daily Summary Page  Observations in Plain Language
KLD1 160600Z 22007KT 02/M03 A3013 RMK A01 T00191025  RH  073%=      5-min Rain = 0
KLD1 160605Z 21005KT 02/M03 A3013 RMK A01 T00181026  RH  073%=      5-min Rain = 0
KLD1 160610Z 21005KT 02/M03 A3012 RMK A01 T00161028  RH  073%=      5-min Rain = 0
KLD1 160615Z 21005KT 01/M03 A3012 RMK A01 T00131028  RH  074%=      5-min Rain = 0
KLD1 160620Z 22006KT 01/M03 A3012 RMK A01 T00141028  RH  075%=      5-min Rain = 0
KLD1 160625Z 22007KT 02/M03 A3012 RMK A01 T00171027  RH  073%=      5-min Rain = 0
KLD1 160630Z 21007KT 02/M03 A3012 RMK A01 T00181027  RH  073%=      5-min Rain = 0
KLD1 160635Z 21008KT 02/M03 A3012 RMK A01 T00191027  RH  072%=      5-min Rain = 0
KLD1 160640Z 22007KT 02/M03 A3011 RMK A01 T00181028  RH  072%=      5-min Rain = 0
KLD1 160645Z 22007KT 02/M03 A3011 RMK A01 T00181028  RH  072%=      5-min Rain = 0
KLD1 160650Z 22007KT 02/M03 A3011 RMK A01 T00161029  RH  073%=      5-min Rain = 0
KLD1 160655Z 22007KT 01/M03 A3011 RMK A01 T00141028  RH  074%=      5-min Rain = 0
KLD1 160700Z 22008KT 01/M03 A3011 RMK A01 T00131029  RH  074%=      5-min Rain = 0
KLD1 160705Z 22007KT 01/M03 A3011 RMK A01 T00121029  RH  075%=      5-min Rain = 0
KLD1 160710Z 22008KT 01/M03 A3011 RMK A01 T00101029  RH  076%=      5-min Rain = 0
KLD1 160715Z 22007KT 01/M03 A3011 RMK A01 T00081030  RH  077%=      5-min Rain = 0
KLD1 160720Z 22007KT 01/M03 A3011 RMK A01 T00061030  RH  078%=      5-min Rain = 0
KLD1 160725Z 23007KT 00/M03 A3011 RMK A01 T00041030  RH  079%=      5-min Rain = 0
KLD1 160730Z 23007KT 00/M03 A301 RMK A01 T00041030  RH  079%=      5-min Rain = 0
KLD1 160735Z 24008KT 01/M03 A301 RMK A01 T00071030  RH  077%=      5-min Rain = 0
KLD1 160740Z 24008KT 01/M03 A301 RMK A01 T00081031  RH  076%=      5-min Rain = 0
KLD1 160745Z 25008KT 01/M03 A301 RMK A01 T00071032  RH  076%=      5-min Rain = 0
KLD1 160750Z 25008KT 00/M03 A301 RMK A01 T00021033  RH  078%=      5-min Rain = 0
KLD1 160755Z 25008KT 00/03 A301 RMK A01 T00000-32  RH  080%=      5-min Rain = 0
KLD1 160800Z 25008KT M00/M03 A301 RMK A01 T10011032  RH  080%=      5-min Rain = 0
KLD1 160805Z 26008KT M00/M03 A301 RMK A01 T10021032  RH  081%=      5-min Rain = 0
KLD1 160810Z 26008KT M00/M03 A301 RMK A01 T10011032  RH  080%=      5-min Rain = 0
KLD1 160815Z 25008KT 00/M03 A301 RMK A01 T00011032  RH  080%=      5-min Rain = 0
KLD1 160820Z 25009KT 00/M03 A301 RMK A01 T00021031  RH  079%=      5-min Rain = 0
KLD1 160825Z 25009KT 00/M03 A301 RMK A01 T00031031  RH  079%=      5-min Rain = 0
KLD1 160830Z 26008KT 00/M03 A301 RMK A01 T00031031  RH  079%=      5-min Rain = 0
KLD1 160835Z 25008KT 00/M03 A301 RMK A01 T00031031  RH  079%=      5-min Rain = 0
KLD1 160840Z 25008KT 00/M03 A301 RMK A01 T00041031  RH  078%=      5-min Rain = 0
KLD1 160845Z 26008KT 00/M03 A3009 RMK A01 T00041031  RH  078%=      5-min Rain = 0
KLD1 160850Z 25009KT 01/M03 A3009 RMK A01 T00051031  RH  078%=      5-min Rain = 0
KLD1 160855Z 25009KT 01/M03 A3009 RMK A01 T00071031  RH  077%=      5-min Rain = 0
KLD1 160900Z 25009KT 01/M03 A3009 RMK A01 T00071031  RH  076%=      5-min Rain = 0
KLD1 160905Z 25009KT 01/M03 A3009 RMK A01 T00061031  RH  077%=      5-min Rain = 0
KLD1 160910Z 25009KT 01/M03 A3009 RMK A01 T00061032  RH  077%=      5-min Rain = 0
KLD1 160915Z 25009KT 01/M03 A3009 RMK A01 T00051032  RH  077%=      5-min Rain = 0
KLD1 160920Z 25009KT 01/M03 A3009 RMK A01 T00051032  RH  077%=      5-min Rain = 0
KLD1 160925Z 25009KT 01/M03 A3008 RMK A01 T00061032  RH  077%=      5-min Rain = 0
KLD1 160930Z 25008KT 01/M03 A3008 RMK A01 T00051033  RH  077%=      5-min Rain = 0
KLD1 160935Z 25008KT 01/M03 A3008 RMK A01 T00051033  RH  077%=      5-min Rain = 0
KLD1 160940Z 25008KT 00/M03 A3008 RMK A01 T00041033  RH  077%=      5-min Rain = 0
KLD1 160945Z 25008KT 00/M03 A3008 RMK A01 T00031034  RH  077%=      5-min Rain = 0
KLD1 160950Z 25009KT 00/M03 A3008 RMK A01 T00021034  RH  078%=      5-min Rain = 0
KLD1 160955Z 25008KT 00/M03 A3008 RMK A01 T00011034  RH  078%=      5-min Rain = 0
KLD1 161000Z 25008KT 00/M04 A3008 RMK A01 T00011035  RH  078%=      5-min Rain = 0
KLD1 161005Z 26008KT M00/M04 A3008 RMK A01 T10011036  RH  078%=      5-min Rain = 0
KLD1 161010Z 26008KT M00/M04 A3007 RMK A01 T10031036  RH  079%=      5-min Rain = 0
KLD1 161015Z 26008KT 00/04 A3007 RMK A01 T00-00-35  RH  079%=      5-min Rain = 0
KLD1 161020Z 25007KT 00/M04 A3007 RMK A01 T00011036  RH  077%=      5-min Rain = 0
KLD1 161025Z 25008KT 00/04 A3007 RMK A01 T00000-36  RH  077%=      5-min Rain = 0
KLD1 161030Z 25008KT M00/M04 A3007 RMK A01 T10011037  RH  078%=      5-min Rain = 0
KLD1 161035Z 25008KT M00/M04 A3007 RMK A01 T10011036  RH  078%=      5-min Rain = 0
KLD1 161040Z 25008KT 00/04 A3007 RMK A01 T00000-37  RH  077%=      5-min Rain = 0
KLD1 161045Z 25008KT M00/M04 A3006 RMK A01 T10011038  RH  077%=      5-min Rain = 0
KLD1 161050Z 25008KT M00/M04 A3006 RMK A01 T10031038  RH  078%=      5-min Rain = 0
KLD1 161055Z 25008KT M00/M04 A3006 RMK A01 T10031038  RH  078%=      5-min Rain = 0
KLD1 161100Z 25008KT M00/M04 A3006 RMK A01 T10031037  RH  078%=      5-min Rain = 0
KLD1 161105Z 25009KT M00/M04 A3006 RMK A01 T10031037  RH  078%=      5-min Rain = 0
KLD1 161110Z 25009KT 00/04 A3006 RMK A01 T00-00-37  RH  077%=      5-min Rain = 0
KLD1 161115Z 24009KT 00/M04 A3006 RMK A01 T00021037  RH  076%=      5-min Rain = 0
KLD1 161120Z 24009KT 00/M04 A3006 RMK A01 T00041037  RH  075%=      5-min Rain = 0
KLD1 161125Z 24008KT 00/M04 A3006 RMK A01 T00041038  RH  075%=      5-min Rain = 0
KLD1 161130Z 24008KT 00/M04 A3006 RMK A01 T00031038  RH  075%=      5-min Rain = 0
KLD1 161135Z 25008KT 00/M04 A3006 RMK A01 T00031039  RH  074%=      5-min Rain = 0
KLD1 161140Z 26008KT M00/M04 A3006 RMK A01 T10011040  RH  076%=      5-min Rain = 0
KLD1 161145Z 26008KT M01/M04 A3006 RMK A01 T10051040  RH  078%=      5-min Rain = 0
KLD1 161150Z 25008KT M00/M04 A3006 RMK A01 T10041040  RH  078%=      5-min Rain = 0
KLD1 161155Z 25008KT M01/M04 A3006 RMK A01 T10051040  RH  078%=      5-min Rain = 0
KLD1 161200Z 25007KT M01/M04 A3006 RMK A01 T10061041  RH  078%=      5-min Rain = 0
KLD1 161205Z 25007KT M01/M04 A3005 RMK A01 T10071041  RH  079%=      5-min Rain = 0
KLD1 161210Z 26007KT M01/M04 A3005 RMK A01 T10081042  RH  079%=      5-min Rain = 0
KLD1 161215Z 26007KT M01/M04 A3005 RMK A01 T10091042  RH  079%=      5-min Rain = 0
KLD1 161220Z 26006KT M01/M04 A3005 RMK A01 T10091042  RH  079%=      5-min Rain = 0
KLD1 161225Z 26006KT M01/M04 A3005 RMK A01 T10101042  RH  079%=      5-min Rain = 0
KLD1 161230Z 25007KT M01/M04 A3005 RMK A01 T10111042  RH  080%=      5-min Rain = 0
KLD1 161235Z 25007KT M01/M04 A3005 RMK A01 T10091041  RH  080%=      5-min Rain = 0
KLD1 161240Z 25007KT M01/M04 A3005 RMK A01 T10061039  RH  079%=      5-min Rain = 0
KLD1 161245Z 25008KT M00/M04 A3005 RMK A01 T10031039  RH  078%=      5-min Rain = 0
KLD1 161250Z 25008KT M00/M04 A3005 RMK A01 T10011039  RH  077%=      5-min Rain = 0
KLD1 161255Z 25008KT M00/M04 A3004 RMK A01 T10011039  RH  076%=      5-min Rain = 0
KLD1 161300Z 25008KT M00/M04 A3004 RMK A01 T10011040  RH  076%=      5-min Rain = 0
KLD1 161305Z 25008KT M00/M04 A3005 RMK A01 T10011040  RH  076%=      5-min Rain = 0
KLD1 161310Z 24008KT M00/M04 A3005 RMK A01 T10011040  RH  076%=      5-min Rain = 0
KLD1 161315Z 24008KT 00/M04 A3005 RMK A01 T00011040  RH  075%=      5-min Rain = 0
KLD1 161320Z 24008KT 00/M04 A3005 RMK A01 T00011040  RH  075%=      5-min Rain = 0
KLD1 161325Z 24007KT 00/M04 A3005 RMK A01 T00011040  RH  075%=      5-min Rain = 0
KLD1 161330Z 24007KT 00/M04 A3005 RMK A01 T00021040  RH  074%=      5-min Rain = 0
KLD1 161335Z 25007KT 00/04 A3005 RMK A01 T00-00-41  RH  075%=      5-min Rain = 0
KLD1 161340Z 24007KT M00/M04 A3005 RMK A01 T10021041  RH  076%=      5-min Rain = 0
KLD1 161345Z 24008KT M00/M04 A3005 RMK A01 T10031040  RH  077%=      5-min Rain = 0
KLD1 161350Z 24008KT 00/04 A3005 RMK A01 T00000-39  RH  076%=      5-min Rain = 0
KLD1 161355Z 23008KT 01/M04 A3005 RMK A01 T00051037  RH  074%=      5-min Rain = 0
KLD1 161400Z 22007KT 01/M04 A3005 RMK A01 T00081036  RH  074%=      5-min Rain = 0
KLD1 161405Z 22007KT 01/M04 A3005 RMK A01 T00091035  RH  074%=      5-min Rain = 0
KLD1 161410Z 24008KT 01/M03 A3005 RMK A01 T00121034  RH  072%=      5-min Rain = 0
KLD1 161415Z 23008KT 02/M03 A3005 RMK A01 T00161034  RH  070%=      5-min Rain = 0
KLD1 161420Z 23008KT 02/M03 A3005 RMK A01 T00181032  RH  070%=      5-min Rain = 0
KLD1 161425Z 23009KT 02/M03 A3005 RMK A01 T00201034  RH  069%=      5-min Rain = 0
KLD1 161430Z 24009KT 02/M03 A3005 RMK A01 T00211032  RH  068%=      5-min Rain = 0
KLD1 161435Z 24009KT 02/M03 A3005 RMK A01 T00221031  RH  069%=      5-min Rain = 0
KLD1 161440Z 24009KT 02/M03 A3005 RMK A01 T00241030  RH  068%=      5-min Rain = 0
KLD1 161445Z 24009KT 03/M03 A3005 RMK A01 T00281027  RH  068%=      5-min Rain = 0
KLD1 161450Z 24009KT 03/M03 A3005 RMK A01 T00301027  RH  067%=      5-min Rain = 0
KLD1 161455Z 24010KT 04/M03 A3005 RMK A01 T00351026  RH  065%=      5-min Rain = 0
KLD1 161500Z 24009KT 04/M02 A3005 RMK A01 T00381024  RH  064%=      5-min Rain = 0
KLD1 161505Z 24008KT 04/M02 A3005 RMK A01 T00421021  RH  065%=      5-min Rain = 0
KLD1 161510Z 24008KT 05/M02 A3005 RMK A01 T00451017  RH  064%=      5-min Rain = 0
KLD1 161515Z 23008KT 05/M02 A3005 RMK A01 T00491015  RH  064%=      5-min Rain = 0
KLD1 161520Z 23009KT 06/M01 A3005 RMK A01 T00551013  RH  062%=      5-min Rain = 0
KLD1 161525Z 23009KT 06/M01 A3005 RMK A01 T00621013  RH  059%=      5-min Rain = 0
KLD1 161530Z 23008KT 07/M01 A3005 RMK A01 T00711009  RH  058%=      5-min Rain = 0
KLD1 161535Z 23010KT 08/M01 A3005 RMK A01 T00751012  RH  055%=      5-min Rain = 0
KLD1 161540Z 22012KT 08/M01 A3005 RMK A01 T00761014  RH  053%=      5-min Rain = 0
KLD1 161545Z 22011KT 08/M01 A3005 RMK A01 T00791012  RH  053%=      5-min Rain = 0
KLD1 161550Z 22011KT 08/M01 A3004 RMK A01 T00831011  RH  052%=      5-min Rain = 0
KLD1 161555Z 22011KT 09/M01 A3004 RMK A01 T00871013  RH  050%=      5-min Rain = 0
KLD1 161600Z 23012KT 09/M02 A3004 RMK A01 T00881016  RH  049%=      5-min Rain = 0
KLD1 161605Z 23013KT 09/M02 A3004 RMK A01 T00851024  RH  047%=      5-min Rain = 0
KLD1 161610Z 22012KT 08/M02 A3004 RMK A01 T00811024  RH  048%=      5-min Rain = 0
KLD1 161615Z 22009KT 08/M02 A3004 RMK A01 T00791018  RH  051%=      5-min Rain = 0
KLD1 161620Z 22009KT 08/M01 A3004 RMK A01 T00781013  RH  053%=      5-min Rain = 0
KLD1 161625Z 22010KT 08/M01 A3003 RMK A01 T00831014  RH  051%=      5-min Rain = 0
KLD1 161630Z 22010KT 09/M02 A3003 RMK A01 T00931018  RH  046%=      5-min Rain = 0
KLD1 161635Z 21012KT 10/M02 A3003 RMK A01 T00961017  RH  046%=      5-min Rain = 0
KLD1 161640Z 22012KT 10/M02 A3003 RMK A01 T00961020  RH  044%=      5-min Rain = 0
KLD1 161645Z 23012KT 10/M02 A3002 RMK A01 T00971020  RH  044%=      5-min Rain = 0
KLD1 161650Z 23011KT 10/M02 A3002 RMK A01 T01041016  RH  044%=      5-min Rain = 0
KLD1 161655Z 23013KT 11/M02 A3002 RMK A01 T01121017  RH  041%=      5-min Rain = 0
KLD1 161700Z 24013KT 12/M02 A3002 RMK A01 T01181017  RH  040%=      5-min Rain = 0
KLD1 161705Z 23012KT 13/M02 A3002 RMK A01 T01251017  RH  038%=      5-min Rain = 0
KLD1 161710Z 24011KT 13/M02 A3002 RMK A01 T01331017  RH  036%=      5-min Rain = 0
KLD1 161715Z 22010KT 13/M02 A3002 RMK A01 T01291019  RH  036%=      5-min Rain = 0
KLD1 161720Z 22011KT 13/M02 A3002 RMK A01 T01271023  RH  036%=      5-min Rain = 0
KLD1 161725Z 21010KT 13/M02 A3002 RMK A01 T01281024  RH  035%=      5-min Rain = 0
KLD1 161730Z 22012KT 13/M03 A3001 RMK A01 T01331030  RH  032%=      5-min Rain = 0
KLD1 161735Z 22011G16KT 14/M03 A3001 RMK A01 T01371027  RH  032%=      5-min Rain = 0
KLD1 161740Z 22013KT 14/M03 A3001 RMK A01 T01361028  RH  032%=      5-min Rain = 0
KLD1 161745Z 20014KT 13/M02 A3001 RMK A01 T01261019  RH  037%=      5-min Rain = 0
KLD1 161750Z 20013KT 12/M02 A3001 RMK A01 T01171017  RH  040%=      5-min Rain = 0
KLD1 161755Z 19013KT 12/M02 A3001 RMK A01 T01181017  RH  040%=      5-min Rain = 0
KLD1 161800Z 20012KT 12/M02 A3001 RMK A01 T01221017  RH  039%=      5-min Rain = 0
KLD1 161805Z 21012KT 13/M01 A3001 RMK A01 T01261013  RH  039%=      5-min Rain = 0
KLD1 161810Z 20010KT 13/M01 A3001 RMK A01 T01341012  RH  037%=      5-min Rain = 0
KLD1 161815Z 21014KT 14/M02 A30 RMK A01 T01351017  RH  035%=      5-min Rain = 0
KLD1 161820Z 21011KT 14/M01 A30 RMK A01 T01381014  RH  035%=      5-min Rain = 0
KLD1 161825Z 21011KT 14/M02 A30 RMK A01 T01441015  RH  034%=      5-min Rain = 0
KLD1 161830Z 22012KT 15/M02 A2999 RMK A01 T01511023  RH  030%=      5-min Rain = 0
KLD1 161835Z 22011KT 16/M02 A2999 RMK A01 T01571022  RH  030%=      5-min Rain = 0
KLD1 161840Z 22012KT 16/M03 A2999 RMK A01 T01591027  RH  028%=      5-min Rain = 0
KLD1 161845Z 23010KT 16/M03 A2998 RMK A01 T01631027  RH  028%=      5-min Rain = 0
KLD1 161850Z 23011KT 16/M03 A2998 RMK A01 T01631031  RH  027%=      5-min Rain = 0
KLD1 161855Z 21010KT 16/M03 A2998 RMK A01 T01621028  RH  027%=      5-min Rain = 0
KLD1 161900Z 22012KT 17/M03 A2997 RMK A01 T01651031  RH  026%=      5-min Rain = 0
KLD1 161905Z 20011G16KT 17/M03 A2997 RMK A01 T01661029  RH  026%=      5-min Rain = 0
KLD1 161910Z 21011G18KT 16/M03 A2997 RMK A01 T01621032  RH  026%=      5-min Rain = 0
KLD1 161915Z 22012G17KT 16/M03 A2996 RMK A01 T01581033  RH  027%=      5-min Rain = 0
KLD1 161920Z 21012KT 16/M03 A2996 RMK A01 T01561033  RH  027%=      5-min Rain = 0
KLD1 161925Z 21011G17KT 16/M03 A2996 RMK A01 T01601029  RH  027%=      5-min Rain = 0
KLD1 161930Z 21009G15KT 16/M03 A2996 RMK A01 T01641034  RH  026%=      5-min Rain = 0
KLD1 161935Z 21012G17KT 17/M04 A2996 RMK A01 T01661035  RH  025%=      5-min Rain = 0
KLD1 161940Z 22012KT 17/M04 A2995 RMK A01 T01651037  RH  025%=      5-min Rain = 0
KLD1 161945Z 21011KT 17/M04 A2995 RMK A01 T01681035  RH  025%=      5-min Rain = 0
KLD1 161950Z 20013G18KT 17/M04 A2995 RMK A01 T01701041  RH  024%=      5-min Rain = 0
KLD1 161955Z 22012G17KT 17/M04 A2995 RMK A01 T01721042  RH  023%=      5-min Rain = 0
KLD1 162000Z 22011G16KT 17/M04 A2994 RMK A01 T01721044  RH  023%=      5-min Rain = 0
KLD1 162005Z 22012KT 17/M04 A2994 RMK A01 T01701041  RH  024%=      5-min Rain = 0
KLD1 162010Z 21010G16KT 17/M04 A2994 RMK A01 T01701036  RH  025%=      5-min Rain = 0
KLD1 162015Z 22012G18KT 17/M03 A2993 RMK A01 T01741033  RH  024%=      5-min Rain = 0
KLD1 162020Z 21013KT 18/M03 A2993 RMK A01 T01761031  RH  024%=      5-min Rain = 0
KLD1 162025Z 21013G18KT 18/M04 A2993 RMK A01 T01761035  RH  024%=      5-min Rain = 0
KLD1 162030Z 22011G17KT 18/M04 A2993 RMK A01 T01761038  RH  023%=      5-min Rain = 0
KLD1 162035Z 21015G20KT 18/M04 A2992 RMK A01 T01771041  RH  023%=      5-min Rain = 0
KLD1 162040Z 21012G18KT 17/M04 A2992 RMK A01 T01741043  RH  023%=      5-min Rain = 0
KLD1 162045Z 21013KT 18/M05 A2992 RMK A01 T01761045  RH  022%=      5-min Rain = 0
KLD1 162050Z 20012G19KT 18/M05 A2992 RMK A01 T01761046  RH  022%=      5-min Rain = 0
KLD1 162055Z 20012KT 18/M04 A2992 RMK A01 T01761040  RH  023%=      5-min Rain = 0
KLD1 162100Z 21013G19KT 18/M04 A2992 RMK A01 T01781042  RH  022%=      5-min Rain = 0
KLD1 162105Z 23012KT 18/M05 A2992 RMK A01 T01791050  RH  021%=      5-min Rain = 0
KLD1 162110Z 22011KT 18/M05 A2991 RMK A01 T01791045  RH  022%=      5-min Rain = 0
KLD1 162115Z 20013G18KT 18/M04 A2991 RMK A01 T01801043  RH  022%=      5-min Rain = 0
KLD1 162120Z 20014G19KT 18/M04 A2991 RMK A01 T01781044  RH  022%=      5-min Rain = 0
KLD1 162125Z 20014KT 17/M05 A2991 RMK A01 T01721046  RH  022%=      5-min Rain = 0
KLD1 162130Z 20013KT 17/M05 A2991 RMK A01 T01731045  RH  023%=      5-min Rain = 0
KLD1 162135Z 20014KT 17/M05 A2991 RMK A01 T01701046  RH  023%=      5-min Rain = 0
KLD1 162140Z 21011KT 17/M04 A2991 RMK A01 T01731044  RH  023%=      5-min Rain = 0
KLD1 162145Z 20012KT 18/M05 A2991 RMK A01 T01751045  RH  022%=      5-min Rain = 0
KLD1 162150Z 21014KT 18/M05 A2991 RMK A01 T01751046  RH  022%=      5-min Rain = 0
KLD1 162155Z 20013KT 17/M05 A299 RMK A01 T01741047  RH  022%=      5-min Rain = 0
KLD1 162200Z 21014G20KT 18/M05 A299 RMK A01 T01761046  RH  022%=      5-min Rain = 0
KLD1 162205Z 20012KT 17/M05 A299 RMK A01 T01721048  RH  022%=      5-min Rain = 0
KLD1 162210Z 21013KT 17/M05 A299 RMK A01 T01651047  RH  023%=      5-min Rain = 0
KLD1 162215Z 20011KT 16/M05 A299 RMK A01 T01631046  RH  024%=      5-min Rain = 0
KLD1 162220Z 21011KT 17/M05 A299 RMK A01 T01671045  RH  023%=      5-min Rain = 0
KLD1 162225Z 21013KT 17/M05 A299 RMK A01 T01671049  RH  023%=      5-min Rain = 0
KLD1 162230Z 21013KT 16/M05 A299 RMK A01 T01621051  RH  023%=      5-min Rain = 0
KLD1 162235Z 20013KT 16/M05 A299 RMK A01 T01581052  RH  023%=      5-min Rain = 0
KLD1 162240Z 20012KT 15/M05 A299 RMK A01 T01541051  RH  024%=      5-min Rain = 0
KLD1 162245Z 20010KT 15/M05 A299 RMK A01 T01511046  RH  026%=      5-min Rain = 0
KLD1 162250Z 19011KT 15/M04 A299 RMK A01 T01511042  RH  026%=      5-min Rain = 0
KLD1 162255Z 19008KT 15/M04 A299 RMK A01 T01511037  RH  027%=      5-min Rain = 0
KLD1 162300Z 19010G15KT 15/M04 A299 RMK A01 T01531039  RH  027%=      5-min Rain = 0
KLD1 162305Z 19010KT 15/M04 A299 RMK A01 T01531041  RH  026%=      5-min Rain = 0
KLD1 162310Z 19008KT 15/M04 A299 RMK A01 T01491039  RH  027%=      5-min Rain = 0
KLD1 162315Z 18007KT 15/M04 A299 RMK A01 T01461035  RH  029%=      5-min Rain = 0
KLD1 162320Z 18008KT 15/M03 A299 RMK A01 T01451034  RH  029%=      5-min Rain = 0
KLD1 162325Z 18009KT 14/M03 A299 RMK A01 T01441032  RH  030%=      5-min Rain = 0
KLD1 162330Z 18008KT 14/M03 A299 RMK A01 T01421029  RH  031%=      5-min Rain = 0
KLD1 162335Z 18008KT 14/M03 A299 RMK A01 T01411028  RH  031%=      5-min Rain = 0
KLD1 162340Z 18008KT 14/M03 A299 RMK A01 T01401028  RH  031%=      5-min Rain = 0
KLD1 162345Z 18007KT 14/M03 A299 RMK A01 T01401028  RH  031%=      5-min Rain = 0
KLD1 162350Z 18008KT 14/M03 A299 RMK A01 T01401027  RH  032%=      5-min Rain = 0
KLD1 162355Z 18008KT 14/M03 A299 RMK A01 T01391027  RH  032%=      5-min Rain = 0
KLD1 170000Z 19008KT 14/M03 A2989 RMK A01 T01381026  RH  032%=      5-min Rain = 0
KLD1 170005Z 19008KT 14/M03 A2989 RMK A01 T01371027  RH  032%=      5-min Rain = 0
KLD1 170010Z 19008KT 14/M03 A2989 RMK A01 T01361026  RH  033%=      5-min Rain = 0
KLD1 170015Z 19008KT 13/M03 A2989 RMK A01 T01341026  RH  033%=      5-min Rain = 0
KLD1 170020Z 19008KT 13/M03 A2989 RMK A01 T01321025  RH  034%=      5-min Rain = 0
KLD1 170025Z 19009KT 13/M03 A2989 RMK A01 T01301027  RH  034%=      5-min Rain = 0
KLD1 170030Z 19009KT 13/M03 A2989 RMK A01 T01291028  RH  034%=      5-min Rain = 0
KLD1 170035Z 19009KT 13/M03 A2989 RMK A01 T01271029  RH  034%=      5-min Rain = 0
KLD1 170040Z 18008KT 12/M03 A2989 RMK A01 T01241029  RH  034%=      5-min Rain = 0
KLD1 170045Z 19008KT 12/M03 A2989 RMK A01 T01211027  RH  036%=      5-min Rain = 0
KLD1 170050Z 18008KT 12/M03 A2989 RMK A01 T01191026  RH  037%=      5-min Rain = 0
KLD1 170055Z 18008KT 12/M03 A2989 RMK A01 T01171026  RH  037%=      5-min Rain = 0
KLD1 170100Z 19009KT 12/M03 A2989 RMK A01 T01151026  RH  038%=      5-min Rain = 0
KLD1 170105Z 19009KT 11/M03 A2989 RMK A01 T01141026  RH  038%=      5-min Rain = 0
KLD1 170110Z 18009KT 11/M03 A2989 RMK A01 T01131027  RH  038%=      5-min Rain = 0
KLD1 170115Z 18009KT 11/M03 A2989 RMK A01 T01111026  RH  039%=      5-min Rain = 0
KLD1 170120Z 19009KT 11/M03 A2989 RMK A01 T01101026  RH  039%=      5-min Rain = 0
KLD1 170125Z 19009KT 11/M03 A2989 RMK A01 T01081026  RH  039%=      5-min Rain = 0
KLD1 170130Z 18009KT 11/M03 A2989 RMK A01 T01081026  RH  039%=      5-min Rain = 0
KLD1 170135Z 18009KT 11/M03 A2989 RMK A01 T01061025  RH  040%=      5-min Rain = 0
KLD1 170140Z 18008KT 10/M02 A2989 RMK A01 T01011022  RH  042%=      5-min Rain = 0
KLD1 170145Z 18008KT 10/M02 A2989 RMK A01 T00981021  RH  044%=      5-min Rain = 0
KLD1 170150Z 18009KT 10/M02 A2989 RMK A01 T00951022  RH  044%=      5-min Rain = 0
KLD1 170155Z 19009KT 09/M02 A2989 RMK A01 T00941022  RH  044%=      5-min Rain = 0
KLD1 170200Z 18010KT 09/M02 A2989 RMK A01 T00931023  RH  045%=      5-min Rain = 0
KLD1 170205Z 18009KT 09/M02 A2989 RMK A01 T00921024  RH  045%=      5-min Rain = 0
KLD1 170210Z 18009KT 09/M02 A2989 RMK A01 T00901024  RH  045%=      5-min Rain = 0
KLD1 170215Z 18009KT 09/M02 A2989 RMK A01 T00881024  RH  046%=      5-min Rain = 0
KLD1 170220Z 19009KT 09/M02 A2989 RMK A01 T00871024  RH  046%=      5-min Rain = 0
KLD1 170225Z 18009KT 09/M02 A2989 RMK A01 T00851023  RH  047%=      5-min Rain = 0
KLD1 170230Z 18009KT 08/M02 A2989 RMK A01 T00821023  RH  048%=      5-min Rain = 0
KLD1 170235Z 18008KT 08/M02 A2988 RMK A01 T00801023  RH  049%=      5-min Rain = 0
KLD1 170240Z 18008KT 08/M02 A2988 RMK A01 T00771022  RH  050%=      5-min Rain = 0
KLD1 170245Z 18008KT 08/M02 A2988 RMK A01 T00751022  RH  051%=      5-min Rain = 0
KLD1 170250Z 18008KT 07/M02 A2988 RMK A01 T00721023  RH  052%=      5-min Rain = 0
KLD1 170255Z 18008KT 07/M02 A2988 RMK A01 T00711023  RH  052%=      5-min Rain = 0
KLD1 170300Z 18007KT 07/M02 A2988 RMK A01 T00711023  RH  052%=      5-min Rain = 0
KLD1 170305Z 17008KT 07/M02 A2988 RMK A01 T00701022  RH  053%=      5-min Rain = 0
KLD1 170310Z 18008KT 07/M02 A2988 RMK A01 T00671022  RH  054%=      5-min Rain = 0
KLD1 170315Z 18008KT 07/M02 A2988 RMK A01 T00661022  RH  054%=      5-min Rain = 0
KLD1 170320Z 18008KT 07/M02 A2988 RMK A01 T00651022  RH  054%=      5-min Rain = 0
KLD1 170325Z 18007KT 07/M02 A2988 RMK A01 T00651022  RH  055%=      5-min Rain = 0
KLD1 170330Z 19007KT 06/M02 A2988 RMK A01 T00641022  RH  055%=      5-min Rain = 0
KLD1 170335Z 19007KT 06/M02 A2988 RMK A01 T00621021  RH  056%=      5-min Rain = 0
KLD1 170340Z 19006KT 06/M02 A2988 RMK A01 T00601020  RH  057%=      5-min Rain = 0
KLD1 170345Z 18007KT 06/M02 A2989 RMK A01 T00571019  RH  059%=      5-min Rain = 0
KLD1 170350Z 18007KT 06/M02 A2989 RMK A01 T00551019  RH  060%=      5-min Rain = 0
KLD1 170355Z 18007KT 05/M02 A2989 RMK A01 T00521018  RH  061%=      5-min Rain = 0
KLD1 170400Z 18007KT 05/M02 A2989 RMK A01 T00501018  RH  062%=      5-min Rain = 0
KLD1 170405Z 17007KT 05/M02 A2989 RMK A01 T00481018  RH  063%=      5-min Rain = 0
KLD1 170410Z 18007KT 05/M02 A2989 RMK A01 T00471019  RH  063%=      5-min Rain = 0
KLD1 170415Z 18008KT 05/M02 A2989 RMK A01 T00501018  RH  062%=      5-min Rain = 0
KLD1 170420Z 18009KT 05/M02 A2988 RMK A01 T00531019  RH  061%=      5-min Rain = 0
KLD1 170425Z 18009KT 06/M02 A2988 RMK A01 T00551019  RH  060%=      5-min Rain = 0
KLD1 170430Z 18009KT 06/M02 A2988 RMK A01 T00561019  RH  059%=      5-min Rain = 0
KLD1 170435Z 19009KT 06/M02 A2988 RMK A01 T00601020  RH  057%=      5-min Rain = 0
KLD1 170440Z 19009KT 06/M02 A2988 RMK A01 T00621020  RH  056%=      5-min Rain = 0
KLD1 170445Z 19009KT 06/M02 A2988 RMK A01 T00641020  RH  055%=      5-min Rain = 0
KLD1 170450Z 19009KT 06/M02 A2987 RMK A01 T00641020  RH  056%=      5-min Rain = 0
KLD1 170455Z 19008KT 06/M02 A2987 RMK A01 T00631019  RH  056%=      5-min Rain = 0
KLD1 170500Z 19008KT 06/M02 A2987 RMK A01 T00621019  RH  057%=      5-min Rain = 0
KLD1 170505Z 19009KT 06/M02 A2987 RMK A01 T00621019  RH  057%=      5-min Rain = 0
KLD1 170510Z 19009KT 07/M02 A2987 RMK A01 T00651019  RH  056%=      5-min Rain = 0
KLD1 170515Z 19009KT 07/M02 A2987 RMK A01 T00671018  RH  055%=      5-min Rain = 0
KLD1 170520Z 19009KT 06/M02 A2986 RMK A01 T00641018  RH  056%=      5-min Rain = 0
KLD1 170525Z 19009KT 06/M02 A2986 RMK A01 T00631018  RH  057%=      5-min Rain = 0
KLD1 170530Z 19010KT 06/M02 A2986 RMK A01 T00631017  RH  057%=      5-min Rain = 0
KLD1 170535Z 19009KT 06/M02 A2986 RMK A01 T00611016  RH  058%=      5-min Rain = 0
KLD1 170540Z 19011KT 06/M02 A2986 RMK A01 T00611016  RH  058%=      5-min Rain = 0
KLD1 170545Z 19012KT 06/M02 A2986 RMK A01 T00641016  RH  057%=      5-min Rain = 0
KLD1 170550Z 19011KT 07/M02 A2986 RMK A01 T00671015  RH  056%=      5-min Rain = 0
KLD1 170555Z 19012KT 07/M02 A2986 RMK A01 T00671015  RH  056%=      5-min Rain = 0

Page generated in 0.0094 seconds.